메인 페이지
METAR-TAF:

METAR-TAF

공항 :

볼고그라드, 러시아

위도: 48-47N, 경도: 044-22E, 고도: 145m

현재 날씨관측

예보는 39분 전, 00:30시(UTC)에 발표되었습니다.
8kt
온도 18°C
습도 68%
기압 1017 hPa
시정 10km 이상
1500m 미만 상공 구름 및 적란운 없음

METAR: URWW 150030Z 09004MPS CAVOK 18/12 Q1017 R06/010070 NOSIG

시각: 04:09 (01:09 UTC)

예보

예보는 2 시간 10분 전, 22:59시(UTC)에 발표되었습니다.
예보 대상 시간: 15일 00시부터 15일 09시까지 (UTC)
동북동10kt, 순간 최대 풍속 19kt
시정 10km 이상
1500m 미만 상공 구름 및 적란운 없음
일시적
15일 00시부터 15일 09시까지 (UTC)
12kt, 순간 최대 풍속 21kt

TAF: URWW 142259Z 1500/1509 06005G10MPS CAVOK TEMPO 1500/1509 09006G11MPS

4,000개 이상의 공항 관측 자료 및 예보 (METAR 및 TAF 보고).

지도상에서 검색 가능한 기상관측소가 노란 점과 빨간 점으로 표시되어 있습니다.

기상관측소 명을 보려면 표시 위로 마우스를 이동하세요.

날씨 관측과 예보를 보려면 클릭하세요.

지도 변경 : 확대하려면 엑스 표시가 있는 녹색 버튼, 축소하려면 빼기 표시가 있는 녹색 버튼, 다음 페이지의 지도를 보려면 녹색 화살표를 클릭하세요.


METAR-TAF: